GTI2145 KIAD-KTRI
Flight info
| Callsign | GTI2145 |
|---|---|
| Flight time | 0h 51m |
| Altitude | 30000 |
| Route | CPTAL1 CSN MOL PSK HMV TAKEN |
| Aircraft | B742/H-SDFHIRWXY/L |
Departure
| Time | 2026-04-26 14:29 |
|---|---|
| Airport | Washington Dulles International Airport (KIAD) |
Arrival
| Time | 2026-04-26 15:20 |
|---|---|
| Airport | Tri-Cities Regional TN/VA Airport (KTRI) |
| Time | Latitude | Longitude | Altitude | Speed | Heading |
|---|---|---|---|---|---|
| 2026-04-26 13:52 | 38.95718 | -77.45447 | 288 ft | 0 kts | 91° |
| 2026-04-26 14:11 | 38.95718 | -77.45448 | 288 ft | 1 kts | 91° |
| 2026-04-26 14:12 | 38.95720 | -77.45467 | 287 ft | 2 kts | 112° |
| 2026-04-26 14:12 | 38.95728 | -77.45483 | 287 ft | 2 kts | 131° |
| 2026-04-26 14:12 | 38.95739 | -77.45496 | 287 ft | 2 kts | 149° |
| 2026-04-26 14:12 | 38.95752 | -77.45504 | 287 ft | 2 kts | 167° |
| 2026-04-26 14:13 | 38.95780 | -77.45506 | 287 ft | 0 kts | 183° |
| 2026-04-26 14:13 | 38.95781 | -77.45505 | 287 ft | 0 kts | 182° |
| 2026-04-26 14:17 | 38.95780 | -77.45506 | 287 ft | 1 kts | 182° |
| 2026-04-26 14:17 | 38.95761 | -77.45506 | 287 ft | 4 kts | 182° |
| 2026-04-26 14:18 | 38.95735 | -77.45512 | 287 ft | 2 kts | 216° |
| 2026-04-26 14:18 | 38.95726 | -77.45535 | 287 ft | 3 kts | 258° |
| 2026-04-26 14:18 | 38.95717 | -77.45573 | 286 ft | 4 kts | 237° |
| 2026-04-26 14:18 | 38.95690 | -77.45591 | 286 ft | 5 kts | 187° |
| 2026-04-26 14:19 | 38.95643 | -77.45592 | 287 ft | 8 kts | 181° |
| 2026-04-26 14:19 | 38.95575 | -77.45595 | 287 ft | 9 kts | 182° |
| 2026-04-26 14:19 | 38.95511 | -77.45597 | 287 ft | 9 kts | 181° |
| 2026-04-26 14:19 | 38.95439 | -77.45596 | 288 ft | 10 kts | 179° |
| 2026-04-26 14:20 | 38.95364 | -77.45596 | 288 ft | 10 kts | 180° |
| 2026-04-26 14:20 | 38.95301 | -77.45596 | 289 ft | 8 kts | 181° |
| 2026-04-26 14:20 | 38.95247 | -77.45598 | 289 ft | 7 kts | 182° |
| 2026-04-26 14:20 | 38.95192 | -77.45600 | 290 ft | 8 kts | 181° |
| 2026-04-26 14:21 | 38.95126 | -77.45601 | 290 ft | 10 kts | 181° |
| 2026-04-26 14:21 | 38.95050 | -77.45601 | 291 ft | 10 kts | 180° |
| 2026-04-26 14:21 | 38.94983 | -77.45601 | 291 ft | 9 kts | 181° |
| 2026-04-26 14:21 | 38.94920 | -77.45603 | 292 ft | 8 kts | 182° |
| 2026-04-26 14:22 | 38.94861 | -77.45605 | 292 ft | 8 kts | 181° |
| 2026-04-26 14:22 | 38.94803 | -77.45605 | 293 ft | 8 kts | 180° |
| 2026-04-26 14:22 | 38.94732 | -77.45606 | 293 ft | 10 kts | 181° |
| 2026-04-26 14:22 | 38.94665 | -77.45608 | 294 ft | 8 kts | 181° |
| 2026-04-26 14:23 | 38.94611 | -77.45609 | 294 ft | 7 kts | 180° |
| 2026-04-26 14:23 | 38.94553 | -77.45609 | 295 ft | 9 kts | 180° |
| 2026-04-26 14:23 | 38.94474 | -77.45611 | 295 ft | 12 kts | 181° |
| 2026-04-26 14:23 | 38.94385 | -77.45612 | 295 ft | 13 kts | 180° |
| 2026-04-26 14:24 | 38.94286 | -77.45612 | 295 ft | 14 kts | 181° |
| 2026-04-26 14:24 | 38.94175 | -77.45615 | 295 ft | 17 kts | 181° |
| 2026-04-26 14:24 | 38.94059 | -77.45617 | 295 ft | 15 kts | 181° |
| 2026-04-26 14:24 | 38.93972 | -77.45616 | 294 ft | 10 kts | 178° |
| 2026-04-26 14:25 | 38.93927 | -77.45625 | 294 ft | 4 kts | 224° |
| 2026-04-26 14:25 | 38.93917 | -77.45663 | 294 ft | 3 kts | 264° |
| 2026-04-26 14:25 | 38.93916 | -77.45705 | 294 ft | 6 kts | 269° |
| 2026-04-26 14:25 | 38.93916 | -77.45764 | 294 ft | 6 kts | 271° |
| 2026-04-26 14:26 | 38.93916 | -77.45813 | 294 ft | 0 kts | 271° |
| 2026-04-26 14:26 | 38.93916 | -77.45815 | 293 ft | 1 kts | 271° |
| 2026-04-26 14:27 | 38.93917 | -77.45869 | 293 ft | 8 kts | 272° |
| 2026-04-26 14:27 | 38.93920 | -77.45940 | 293 ft | 5 kts | 275° |
| 2026-04-26 14:27 | 38.93932 | -77.45969 | 293 ft | 3 kts | 325° |
| 2026-04-26 14:27 | 38.93951 | -77.45976 | 293 ft | 2 kts | 1° |
| 2026-04-26 14:28 | 38.93957 | -77.45976 | 293 ft | 0 kts | 2° |
| 2026-04-26 14:28 | 38.94056 | -77.45976 | 294 ft | 44 kts | 359° |
| 2026-04-26 14:28 | 38.94597 | -77.45969 | 292 ft | 110 kts | 1° |
| 2026-04-26 14:28 | 38.95567 | -77.45958 | 308 ft | 162 kts | 1° |
| 2026-04-26 14:29 | 38.96691 | -77.45978 | 862 ft | 163 kts | 359° |
| 2026-04-26 14:29 | 38.97821 | -77.46043 | 1504 ft | 166 kts | 359° |
| 2026-04-26 14:29 | 38.98956 | -77.46148 | 2162 ft | 164 kts | 359° |
| 2026-04-26 14:29 | 39.00124 | -77.46277 | 2469 ft | 173 kts | 357° |
| 2026-04-26 14:30 | 39.01413 | -77.46460 | 2768 ft | 197 kts | 356° |
| 2026-04-26 14:30 | 39.02793 | -77.46680 | 3448 ft | 207 kts | 354° |
| 2026-04-26 14:30 | 39.04215 | -77.47224 | 3993 ft | 229 kts | 330° |
| 2026-04-26 14:30 | 39.05257 | -77.48836 | 4251 ft | 250 kts | 294° |
| 2026-04-26 14:31 | 39.05456 | -77.51114 | 4497 ft | 264 kts | 265° |
| 2026-04-26 14:31 | 39.05099 | -77.53493 | 4813 ft | 280 kts | 261° |
| 2026-04-26 14:31 | 39.04662 | -77.55944 | 5521 ft | 281 kts | 260° |
| 2026-04-26 14:31 | 39.04162 | -77.58346 | 6193 ft | 284 kts | 249° |
| 2026-04-26 14:32 | 39.02969 | -77.60378 | 6817 ft | 292 kts | 219° |
| 2026-04-26 14:32 | 39.01231 | -77.61746 | 7466 ft | 294 kts | 209° |
| 2026-04-26 14:32 | 38.99410 | -77.62949 | 8105 ft | 297 kts | 208° |
| 2026-04-26 14:32 | 38.97561 | -77.64147 | 8604 ft | 305 kts | 208° |
| 2026-04-26 14:33 | 38.95626 | -77.65405 | 9056 ft | 315 kts | 208° |
| 2026-04-26 14:33 | 38.93656 | -77.66708 | 9505 ft | 324 kts | 208° |
| 2026-04-26 14:33 | 38.91633 | -77.68043 | 9948 ft | 334 kts | 207° |
| 2026-04-26 14:33 | 38.89506 | -77.69437 | 10405 ft | 345 kts | 207° |
| 2026-04-26 14:34 | 38.87353 | -77.70845 | 10857 ft | 355 kts | 207° |
| 2026-04-26 14:34 | 38.85123 | -77.72302 | 11309 ft | 364 kts | 207° |
| 2026-04-26 14:34 | 38.82848 | -77.73788 | 11758 ft | 374 kts | 208° |
| 2026-04-26 14:34 | 38.80475 | -77.75338 | 12204 ft | 384 kts | 208° |
| 2026-04-26 14:35 | 38.78099 | -77.76887 | 12631 ft | 392 kts | 208° |
| 2026-04-26 14:35 | 38.75632 | -77.78494 | 13123 ft | 399 kts | 208° |
| 2026-04-26 14:35 | 38.73128 | -77.80125 | 13630 ft | 405 kts | 208° |
| 2026-04-26 14:35 | 38.70596 | -77.81773 | 14145 ft | 411 kts | 208° |
| 2026-04-26 14:36 | 38.68055 | -77.83426 | 14655 ft | 416 kts | 208° |
| 2026-04-26 14:36 | 38.65567 | -77.85292 | 15165 ft | 419 kts | 218° |
| 2026-04-26 14:36 | 38.63375 | -77.87749 | 15686 ft | 420 kts | 229° |
| 2026-04-26 14:36 | 38.61447 | -77.90578 | 16203 ft | 422 kts | 234° |
| 2026-04-26 14:37 | 38.59652 | -77.93556 | 16718 ft | 425 kts | 236° |
| 2026-04-26 14:37 | 38.57882 | -77.96606 | 17240 ft | 429 kts | 236° |
| 2026-04-26 14:37 | 38.56124 | -77.99644 | 17761 ft | 432 kts | 236° |
| 2026-04-26 14:37 | 38.54325 | -78.02731 | 18289 ft | 435 kts | 236° |
| 2026-04-26 14:38 | 38.52506 | -78.05833 | 18814 ft | 438 kts | 236° |
| 2026-04-26 14:38 | 38.51287 | -78.07906 | 19164 ft | 440 kts | 236° |
| 2026-04-26 14:38 | 38.48808 | -78.12097 | 19872 ft | 443 kts | 235° |
| 2026-04-26 14:38 | 38.47572 | -78.14183 | 20219 ft | 444 kts | 235° |
| 2026-04-26 14:39 | 38.45095 | -78.18374 | 20918 ft | 447 kts | 235° |
| 2026-04-26 14:39 | 38.43221 | -78.21544 | 21455 ft | 448 kts | 235° |
| 2026-04-26 14:39 | 38.41986 | -78.23628 | 21802 ft | 449 kts | 235° |
| 2026-04-26 14:39 | 38.39465 | -78.27879 | 22514 ft | 450 kts | 235° |
| 2026-04-26 14:40 | 38.37595 | -78.31027 | 23037 ft | 450 kts | 235° |
| 2026-04-26 14:40 | 38.35699 | -78.34216 | 23574 ft | 450 kts | 235° |
| 2026-04-26 14:40 | 38.33821 | -78.37373 | 24100 ft | 450 kts | 235° |
| 2026-04-26 14:40 | 38.31931 | -78.40543 | 24595 ft | 450 kts | 235° |
| 2026-04-26 14:41 | 38.30671 | -78.42657 | 24907 ft | 450 kts | 235° |
| 2026-04-26 14:41 | 38.28769 | -78.45844 | 25390 ft | 450 kts | 235° |
| 2026-04-26 14:41 | 38.26254 | -78.50053 | 26034 ft | 450 kts | 235° |
| 2026-04-26 14:41 | 38.24368 | -78.53208 | 26515 ft | 449 kts | 235° |
| 2026-04-26 14:42 | 38.23115 | -78.55302 | 26835 ft | 448 kts | 235° |
| 2026-04-26 14:42 | 38.20604 | -78.59492 | 27484 ft | 446 kts | 235° |
| 2026-04-26 14:42 | 38.19339 | -78.61601 | 27811 ft | 445 kts | 235° |
| 2026-04-26 14:42 | 38.16843 | -78.65758 | 28432 ft | 442 kts | 234° |
| 2026-04-26 14:43 | 38.14983 | -78.68853 | 28841 ft | 442 kts | 234° |
| 2026-04-26 14:43 | 38.13751 | -78.70901 | 29104 ft | 442 kts | 234° |
| 2026-04-26 14:43 | 38.11888 | -78.73996 | 29493 ft | 441 kts | 234° |
| 2026-04-26 14:43 | 38.09409 | -78.78112 | 29961 ft | 441 kts | 234° |
| 2026-04-26 14:44 | 38.08175 | -78.80159 | 30058 ft | 445 kts | 234° |
| 2026-04-26 14:44 | 38.04346 | -78.86496 | 30099 ft | 459 kts | 234° |
| 2026-04-26 14:45 | 38.00387 | -78.93025 | 30100 ft | 476 kts | 234° |
| 2026-04-26 14:45 | 37.96309 | -78.99746 | 30098 ft | 492 kts | 234° |
| 2026-04-26 14:45 | 37.93483 | -79.04398 | 30092 ft | 503 kts | 234° |
| 2026-04-26 14:46 | 37.91403 | -79.07941 | 30091 ft | 510 kts | 236° |
| 2026-04-26 14:46 | 37.88037 | -79.14214 | 30076 ft | 518 kts | 239° |
| 2026-04-26 14:47 | 37.84206 | -79.21836 | 30072 ft | 511 kts | 239° |
| 2026-04-26 14:47 | 37.80476 | -79.29381 | 30069 ft | 505 kts | 240° |
| 2026-04-26 14:48 | 37.76119 | -79.38161 | 30069 ft | 500 kts | 240° |
| 2026-04-26 14:48 | 37.73039 | -79.44338 | 30074 ft | 497 kts | 240° |
| 2026-04-26 14:49 | 37.69363 | -79.51688 | 30065 ft | 494 kts | 240° |
| 2026-04-26 14:49 | 37.65086 | -79.60220 | 30059 ft | 491 kts | 240° |
| 2026-04-26 14:50 | 37.62059 | -79.66245 | 30061 ft | 489 kts | 239° |
| 2026-04-26 14:50 | 37.58420 | -79.73471 | 30066 ft | 490 kts | 239° |
| 2026-04-26 14:51 | 37.54745 | -79.80754 | 30057 ft | 491 kts | 239° |
| 2026-04-26 14:51 | 37.51079 | -79.88002 | 30058 ft | 492 kts | 239° |
| 2026-04-26 14:52 | 37.47386 | -79.95290 | 30056 ft | 493 kts | 239° |
| 2026-04-26 14:52 | 37.43698 | -80.02554 | 30057 ft | 493 kts | 239° |
| 2026-04-26 14:53 | 37.40023 | -80.09773 | 30057 ft | 494 kts | 239° |
| 2026-04-26 14:53 | 37.36307 | -80.17059 | 30059 ft | 495 kts | 239° |
| 2026-04-26 14:54 | 37.32575 | -80.24358 | 30065 ft | 495 kts | 239° |
| 2026-04-26 14:54 | 37.28852 | -80.31619 | 30074 ft | 502 kts | 239° |
| 2026-04-26 14:55 | 37.25015 | -80.39088 | 30083 ft | 511 kts | 239° |
| 2026-04-26 14:55 | 37.21162 | -80.46575 | 30087 ft | 512 kts | 239° |
| 2026-04-26 14:56 | 37.17303 | -80.54050 | 30086 ft | 508 kts | 239° |
| 2026-04-26 14:56 | 37.13499 | -80.61410 | 30070 ft | 496 kts | 239° |
| 2026-04-26 14:56 | 37.11652 | -80.64974 | 29929 ft | 485 kts | 239° |
| 2026-04-26 14:57 | 37.09859 | -80.68541 | 29463 ft | 477 kts | 240° |
| 2026-04-26 14:57 | 37.08176 | -80.72056 | 28859 ft | 472 kts | 241° |
| 2026-04-26 14:57 | 37.06529 | -80.75613 | 28207 ft | 468 kts | 242° |
| 2026-04-26 14:57 | 37.04935 | -80.79113 | 27543 ft | 465 kts | 242° |
| 2026-04-26 14:58 | 37.03335 | -80.82653 | 26867 ft | 462 kts | 242° |
| 2026-04-26 14:58 | 37.01784 | -80.86089 | 26210 ft | 459 kts | 242° |
| 2026-04-26 14:58 | 37.00214 | -80.89566 | 25551 ft | 457 kts | 242° |
| 2026-04-26 14:58 | 36.98659 | -80.93005 | 24899 ft | 454 kts | 242° |
| 2026-04-26 14:59 | 36.97121 | -80.96401 | 24248 ft | 452 kts | 242° |
| 2026-04-26 14:59 | 36.95579 | -80.99802 | 23594 ft | 449 kts | 242° |
| 2026-04-26 14:59 | 36.94044 | -81.03181 | 22960 ft | 447 kts | 242° |
| 2026-04-26 14:59 | 36.93019 | -81.05436 | 22539 ft | 446 kts | 242° |
| 2026-04-26 15:00 | 36.90982 | -81.09914 | 21701 ft | 443 kts | 242° |
| 2026-04-26 15:00 | 36.89499 | -81.13171 | 21083 ft | 441 kts | 242° |
| 2026-04-26 15:00 | 36.87981 | -81.16501 | 20448 ft | 440 kts | 242° |
| 2026-04-26 15:00 | 36.86489 | -81.19772 | 19820 ft | 438 kts | 242° |
| 2026-04-26 15:01 | 36.84982 | -81.23073 | 19182 ft | 436 kts | 241° |
| 2026-04-26 15:01 | 36.83492 | -81.26334 | 18566 ft | 435 kts | 241° |
| 2026-04-26 15:01 | 36.81989 | -81.29620 | 17942 ft | 433 kts | 241° |
| 2026-04-26 15:01 | 36.80496 | -81.32877 | 17285 ft | 432 kts | 241° |
| 2026-04-26 15:02 | 36.79009 | -81.36118 | 16653 ft | 431 kts | 241° |
| 2026-04-26 15:02 | 36.77542 | -81.39314 | 16049 ft | 430 kts | 241° |
| 2026-04-26 15:02 | 36.76067 | -81.42524 | 15435 ft | 429 kts | 241° |
| 2026-04-26 15:02 | 36.74580 | -81.45758 | 14877 ft | 426 kts | 241° |
| 2026-04-26 15:03 | 36.73113 | -81.48943 | 14375 ft | 423 kts | 241° |
| 2026-04-26 15:03 | 36.71659 | -81.52098 | 13858 ft | 419 kts | 241° |
| 2026-04-26 15:03 | 36.70223 | -81.55212 | 13381 ft | 415 kts | 241° |
| 2026-04-26 15:03 | 36.68789 | -81.58318 | 12978 ft | 409 kts | 241° |
| 2026-04-26 15:04 | 36.67387 | -81.61350 | 12570 ft | 404 kts | 241° |
| 2026-04-26 15:04 | 36.65985 | -81.64381 | 12156 ft | 398 kts | 240° |
| 2026-04-26 15:04 | 36.64607 | -81.67358 | 11777 ft | 392 kts | 240° |
| 2026-04-26 15:04 | 36.63300 | -81.70179 | 11427 ft | 389 kts | 240° |
| 2026-04-26 15:05 | 36.61949 | -81.73093 | 11119 ft | 382 kts | 240° |
| 2026-04-26 15:05 | 36.61077 | -81.74972 | 11035 ft | 375 kts | 240° |
| 2026-04-26 15:05 | 36.59380 | -81.78625 | 11014 ft | 356 kts | 240° |
| 2026-04-26 15:05 | 36.58164 | -81.81239 | 11011 ft | 344 kts | 240° |
| 2026-04-26 15:06 | 36.56977 | -81.83789 | 11001 ft | 334 kts | 240° |
| 2026-04-26 15:06 | 36.55838 | -81.86235 | 10998 ft | 322 kts | 240° |
| 2026-04-26 15:06 | 36.54718 | -81.88636 | 10613 ft | 322 kts | 240° |
| 2026-04-26 15:06 | 36.53590 | -81.91054 | 10069 ft | 326 kts | 239° |
| 2026-04-26 15:07 | 36.51318 | -81.95921 | 9201 ft | 327 kts | 239° |
| 2026-04-26 15:07 | 36.50176 | -81.98360 | 8766 ft | 322 kts | 240° |
| 2026-04-26 15:07 | 36.49071 | -82.00722 | 8347 ft | 313 kts | 240° |
| 2026-04-26 15:08 | 36.48000 | -82.03009 | 7934 ft | 304 kts | 240° |
| 2026-04-26 15:08 | 36.46960 | -82.05229 | 7510 ft | 295 kts | 240° |
| 2026-04-26 15:08 | 36.45923 | -82.07443 | 7099 ft | 290 kts | 240° |
| 2026-04-26 15:08 | 36.44939 | -82.09547 | 6732 ft | 283 kts | 242° |
| 2026-04-26 15:09 | 36.44046 | -82.11752 | 6362 ft | 288 kts | 247° |
| 2026-04-26 15:09 | 36.43285 | -82.14037 | 6094 ft | 282 kts | 250° |
| 2026-04-26 15:09 | 36.42611 | -82.16257 | 6015 ft | 271 kts | 251° |
| 2026-04-26 15:09 | 36.41972 | -82.18422 | 5993 ft | 264 kts | 251° |
| 2026-04-26 15:10 | 36.41349 | -82.20550 | 5987 ft | 264 kts | 251° |
| 2026-04-26 15:10 | 36.40924 | -82.21998 | 5988 ft | 263 kts | 251° |
| 2026-04-26 15:10 | 36.40094 | -82.24828 | 5987 ft | 267 kts | 251° |
| 2026-04-26 15:10 | 36.39456 | -82.27003 | 5987 ft | 271 kts | 251° |
| 2026-04-26 15:11 | 36.38790 | -82.29208 | 5991 ft | 269 kts | 250° |
| 2026-04-26 15:11 | 36.38123 | -82.31345 | 5986 ft | 262 kts | 250° |
| 2026-04-26 15:11 | 36.37463 | -82.33442 | 5985 ft | 260 kts | 250° |
| 2026-04-26 15:11 | 36.36783 | -82.35523 | 5972 ft | 267 kts | 241° |
| 2026-04-26 15:12 | 36.35586 | -82.37331 | 5969 ft | 270 kts | 225° |
| 2026-04-26 15:12 | 36.34251 | -82.38909 | 5777 ft | 267 kts | 223° |
| 2026-04-26 15:12 | 36.32895 | -82.40479 | 5428 ft | 269 kts | 223° |
| 2026-04-26 15:12 | 36.31506 | -82.42083 | 5065 ft | 271 kts | 223° |
| 2026-04-26 15:13 | 36.30129 | -82.43673 | 4781 ft | 270 kts | 223° |
| 2026-04-26 15:13 | 36.28772 | -82.45240 | 4553 ft | 266 kts | 223° |
| 2026-04-26 15:13 | 36.27437 | -82.46783 | 4323 ft | 262 kts | 223° |
| 2026-04-26 15:13 | 36.26119 | -82.48305 | 4098 ft | 256 kts | 223° |
| 2026-04-26 15:14 | 36.24878 | -82.49826 | 3989 ft | 242 kts | 237° |
| 2026-04-26 15:14 | 36.24374 | -82.51681 | 3995 ft | 225 kts | 274° |
| 2026-04-26 15:14 | 36.24862 | -82.53432 | 3977 ft | 208 kts | 315° |
| 2026-04-26 15:14 | 36.25899 | -82.54636 | 4002 ft | 206 kts | 322° |
| 2026-04-26 15:15 | 36.26995 | -82.55756 | 3987 ft | 203 kts | 323° |
| 2026-04-26 15:15 | 36.28228 | -82.56484 | 3979 ft | 192 kts | 0° |
| 2026-04-26 15:15 | 36.29515 | -82.56108 | 3989 ft | 195 kts | 18° |
| 2026-04-26 15:15 | 36.30864 | -82.55724 | 3984 ft | 196 kts | 13° |
| 2026-04-26 15:16 | 36.32172 | -82.55401 | 3975 ft | 188 kts | 13° |
| 2026-04-26 15:16 | 36.33450 | -82.55084 | 3986 ft | 189 kts | 13° |
| 2026-04-26 15:16 | 36.34719 | -82.54694 | 3968 ft | 186 kts | 29° |
| 2026-04-26 15:16 | 36.35788 | -82.53887 | 4001 ft | 172 kts | 36° |
| 2026-04-26 15:17 | 36.36707 | -82.52992 | 3943 ft | 168 kts | 40° |
| 2026-04-26 15:17 | 36.37308 | -82.52354 | 3821 ft | 167 kts | 42° |
| 2026-04-26 15:17 | 36.38440 | -82.51099 | 3567 ft | 163 kts | 43° |
| 2026-04-26 15:17 | 36.39283 | -82.50151 | 3339 ft | 163 kts | 43° |
| 2026-04-26 15:18 | 36.40115 | -82.49194 | 3134 ft | 163 kts | 43° |
| 2026-04-26 15:18 | 36.40947 | -82.48247 | 2921 ft | 164 kts | 44° |
| 2026-04-26 15:18 | 36.41791 | -82.47282 | 2718 ft | 163 kts | 45° |
| 2026-04-26 15:18 | 36.42613 | -82.46333 | 2535 ft | 163 kts | 44° |
| 2026-04-26 15:19 | 36.43460 | -82.45370 | 2309 ft | 165 kts | 44° |
| 2026-04-26 15:19 | 36.44307 | -82.44407 | 2099 ft | 167 kts | 44° |
| 2026-04-26 15:19 | 36.45178 | -82.43436 | 1880 ft | 166 kts | 43° |
| 2026-04-26 15:19 | 36.46036 | -82.42489 | 1649 ft | 167 kts | 45° |
| 2026-04-26 15:20 | 36.46886 | -82.41512 | 1493 ft | 162 kts | 44° |
| 2026-04-26 15:20 | 36.47604 | -82.40693 | 1513 ft | 103 kts | 41° |
| 2026-04-26 15:20 | 36.47863 | -82.40398 | 1514 ft | 18 kts | 42° |
| 2026-04-26 15:20 | 36.47933 | -82.40319 | 1513 ft | 12 kts | 43° |
| 2026-04-26 15:21 | 36.48011 | -82.40231 | 1512 ft | 15 kts | 43° |
| 2026-04-26 15:21 | 36.48090 | -82.40141 | 1510 ft | 15 kts | 43° |
| 2026-04-26 15:21 | 36.48119 | -82.40068 | 1509 ft | 8 kts | 97° |
| 2026-04-26 15:21 | 36.48093 | -82.40009 | 1508 ft | 8 kts | 137° |
| 2026-04-26 15:22 | 36.48029 | -82.39979 | 1506 ft | 11 kts | 175° |
| 2026-04-26 15:22 | 36.47951 | -82.39977 | 1505 ft | 8 kts | 180° |
| 2026-04-26 15:22 | 36.47942 | -82.39977 | 1505 ft | 0 kts | 180° |
| 2026-04-26 15:23 | 36.47936 | -82.39977 | 1505 ft | 3 kts | 180° |
| 2026-04-26 15:23 | 36.47877 | -82.39977 | 1504 ft | 13 kts | 180° |
| 2026-04-26 15:23 | 36.47773 | -82.39978 | 1504 ft | 14 kts | 192° |
| 2026-04-26 15:23 | 36.47687 | -82.40048 | 1504 ft | 16 kts | 224° |
| 2026-04-26 15:24 | 36.47591 | -82.40157 | 1505 ft | 20 kts | 223° |
| 2026-04-26 15:24 | 36.47485 | -82.40279 | 1505 ft | 20 kts | 223° |
| 2026-04-26 15:24 | 36.47385 | -82.40393 | 1505 ft | 18 kts | 223° |
| 2026-04-26 15:24 | 36.47294 | -82.40497 | 1504 ft | 12 kts | 223° |
| 2026-04-26 15:25 | 36.47239 | -82.40559 | 1503 ft | 7 kts | 213° |
| 2026-04-26 15:25 | 36.47194 | -82.40559 | 1503 ft | 6 kts | 148° |
| 2026-04-26 15:25 | 36.47168 | -82.40523 | 1502 ft | 5 kts | 128° |
| 2026-04-26 15:25 | 36.47149 | -82.40495 | 1502 ft | 1 kts | 116° |
| 2026-04-26 15:26 | 36.47150 | -82.40483 | 1502 ft | 1 kts | 50° |
| 2026-04-26 15:26 | 36.47155 | -82.40478 | 1502 ft | 0 kts | 41° |